Airfield :
LOGIN :

Register | Disclaimer

   EN    FR    IT 

 










Legend :    VFR   Marginal VFR   IFR   Intensive IFR   Very Intensive IFR
Visi :
Ceiling :
>= 8 km
>= 3000ft
5 to 8 km
1000 to 3000 ft
1500m to 5 km
500 to 1000 ft
800 to 1500m
200 to 500 ft
< 800m
< 200 ft
Symbols :   Thunderstorms  Fog  Heavy snow  Heavy precipitations  Wind > 20 kt
SIGMETs :     Misc.  Thunderstorms  Icing  Turbulence  Mountain Waves  Volcanic Ashes







- Airport Elevation : 821 ft
- IATA code : LYS
- Download approach charts


LFLL - Lyon St Exupéry / Satolas

CURRENT METAR :
  • 270300Z 33007KT 9999 FEW013 BKN022 04/02 Q1015 TEMPO BKN009

EXPIRED METARs :
  • 270230Z 34007KT 9999 SCT013 BKN026 04/02 Q1015 TEMPO BKN009
  • 270200Z 35009KT 9999 SCT010 BKN017 04/02 Q1015 TEMPO BKN009
  • 270130Z 34008KT 9999 BKN010 BKN023 04/02 Q1015 TEMPO BKN009
  • 270100Z 33008KT 9999 BKN010 BKN023 04/02 Q1015 TEMPO BKN009
  • 270030Z 33008KT 9999 BKN010 BKN025 04/02 Q1015 TEMPO BKN009

TAF TAF LFLL
Valid from the 27 at 00:00 until the 28 at 06:00 UTC


262300Z 2700/2806 34010KT 9999 BKN015
TEMPO 2700/2708 BKN009
PROB30
TEMPO 2701/2706 BKN004
TEMPO 2710/2718 SCT045TCU
BECMG 2718/2720 CAVOK
No reported NOTAMs for that airfield.
2 SIGMETs reported for the Marseille FIR (LFMM) :
 
Severe turbulence
LFMM SIGMET 1 VALID 270300/270700 LFPW
LFMM MARSEILLE FIR/UIR SEV TURB FCST WI N4630 E00300 - N4630 E00545 - N4515 E00245 FL140/220 STNR NC=
Embedded thunderstorms
LFMM SIGMET 1 VALID 262300/270300 LFPW
LFMM MARSEILLE FIR/UIR EMBD TS FCST S OF LINE N4030 E00800 - N3900 E00515 TOP FL350 STNR NC=



MET'MAP, your aeronautical weather chart ! - Copyright ORBIFLY December 2007 - Disclaimer

ORBIFLY MET'MAP TEAM :

Programming & Development : Alexandra Zaïnal
Concept & Development : Baudouin d'Aumeries
Co-Development & Prog : Marc-Olivier Méhu
Technical & hardware support : Manuel Goepfert

Contact : metmap@orbifly.com




SOURCES & CREDITS :

   NOAA